Terminal Aerodrome Forecast
Issued by NWS

Home | Current Version | Previous Version | Text Only | Print | Product List | Glossary On
Versions: 1 2 3 4 5 6 7 8 9 10 11 12 13 14 15 16 17 18 19 20 21 22
468
FTUS46 KLOX 252145 AAD
TAFOXR
TAF AMD
KOXR 252145Z 2522/2618 27015G25KT P6SM SCT010 BKN060
     FM260200 28010KT P6SM SCT150
     FM260600 VRB03KT P6SM SCT150
     FM261100 VRB03KT 4SM BR SCT150
     FM261700 VRB03KT P6SM BKN150=

USA.gov is the U.S. government's official web portal to all federal, state and local government web resources and services.